Time;durP1;ratioP1;P1;durP2;ratioP2;P2;SDS_P1;SDS_P2;PMS_P1;PMS_P2;Temp;Humidity;BMP_temperature;BMP_pressure;BME280_temperature;BME280_humidity;BME280_pressure;Samples;Min_cycle;Max_cycle;Signal;HPM_P1;HPM_P2
2020/12/01 00:00:29;;;;;;;28.30;14.07;;;2.80;99.90;;;;;;5084568;28;20536;-45
2020/12/01 00:02:55;;;;;;;24.35;11.93;;;2.80;99.90;;;;;;5076288;28;20128;-45
2020/12/01 00:05:24;;;;;;;23.42;12.93;;;2.90;99.90;;;;;;5076712;28;20494;-45
2020/12/01 00:07:49;;;;;;;26.25;13.90;;;2.80;99.90;;;;;;5075542;28;20098;-45
2020/12/01 00:10:16;;;;;;;27.23;13.85;;;2.70;99.90;;;;;;5072086;28;20115;-48
2020/12/01 00:12:43;;;;;;;27.50;14.32;;;2.70;99.90;;;;;;5084009;28;20020;-47
2020/12/01 00:15:11;;;;;;;32.67;16.63;;;2.70;99.90;;;;;;5087340;28;20024;-48
2020/12/01 00:17:37;;;;;;;31.65;15.20;;;2.60;99.90;;;;;;5081020;28;20429;-46
2020/12/01 00:20:08;;;;;;;29.95;14.93;;;2.70;99.90;;;;;;5086379;28;20027;-46
2020/12/01 00:22:34;;;;;;;31.48;15.82;;;2.90;99.90;;;;;;5070460;28;20131;-46
2020/12/01 00:25:00;;;;;;;32.22;16.05;;;2.80;99.90;;;;;;5080000;28;20016;-49
2020/12/01 00:27:26;;;;;;;29.65;15.23;;;2.80;99.90;;;;;;5087229;28;20549;-45
2020/12/01 00:29:52;;;;;;;31.52;16.02;;;2.80;99.90;;;;;;5087325;28;20028;-49
2020/12/01 00:32:17;;;;;;;31.02;16.33;;;2.80;99.90;;;;;;5069497;28;20029;-47
2020/12/01 00:34:44;;;;;;;30.08;15.25;;;2.70;99.90;;;;;;5086692;28;20578;-47
2020/12/01 00:37:10;;;;;;;32.97;15.43;;;2.70;99.90;;;;;;5079510;28;20036;-46
2020/12/01 00:39:36;;;;;;;27.63;14.70;;;2.80;99.90;;;;;;5081563;28;20024;-45
2020/12/01 00:42:01;;;;;;;28.38;14.40;;;2.70;99.90;;;;;;5084467;28;20040;-45
2020/12/01 00:44:27;;;;;;;26.05;13.50;;;2.80;99.90;;;;;;5087254;28;20032;-46
2020/12/01 00:46:53;;;;;;;26.25;14.60;;;2.70;99.90;;;;;;5086743;28;20036;-46
2020/12/01 00:49:18;;;;;;;36.42;16.33;;;2.80;99.90;;;;;;5074700;28;20032;-46
2020/12/01 00:51:48;;;;;;;36.05;17.42;;;2.80;99.90;;;;;;5079332;28;20318;-45
2020/12/01 00:54:14;;;;;;;33.30;16.25;;;2.70;99.90;;;;;;5085481;28;20027;-45
2020/12/01 00:56:41;;;;;;;33.38;17.33;;;2.70;99.90;;;;;;5085047;28;20080;-46
2020/12/01 00:59:06;;;;;;;32.67;16.40;;;2.70;99.90;;;;;;5086544;28;20446;-47
2020/12/01 01:01:32;;;;;;;31.77;15.15;;;2.70;99.90;;;;;;5074735;28;20126;-45
2020/12/01 01:03:58;;;;;;;33.80;17.48;;;2.70;99.90;;;;;;5066363;28;20043;-46
2020/12/01 01:06:25;;;;;;;35.30;16.80;;;2.70;99.90;;;;;;5066100;28;20067;-46
2020/12/01 01:08:51;;;;;;;37.08;17.83;;;2.80;99.90;;;;;;5079778;28;20031;-46
2020/12/01 01:11:25;;;;;;;39.10;18.33;;;2.80;99.90;;;;;;5086227;28;20038;-47
2020/12/01 01:13:50;;;;;;;;;;;2.70;99.90;;;;;;5086570;28;20013;-45
2020/12/01 01:16:16;;;;;;;41.33;18.58;;;2.80;99.90;;;;;;5087082;28;20296;-47
2020/12/01 01:18:42;;;;;;;35.08;16.92;;;2.90;99.90;;;;;;5075629;28;20031;-45
2020/12/01 01:21:08;;;;;;;36.33;16.60;;;2.90;99.90;;;;;;5075350;28;20031;-45
2020/12/01 01:23:34;;;;;;;32.33;16.08;;;2.80;99.90;;;;;;5068139;28;20032;-46
2020/12/01 01:26:01;;;;;;;32.15;15.55;;;2.90;99.90;;;;;;5086182;28;20078;-48
2020/12/01 01:28:26;;;;;;;28.98;14.27;;;3.00;99.90;;;;;;5073217;28;20042;-45
2020/12/01 01:30:52;;;;;;;27.50;13.65;;;3.00;99.90;;;;;;5076016;28;20110;-45
2020/12/01 01:33:18;;;;;;;30.27;14.25;;;3.00;99.90;;;;;;5085900;28;20039;-47
2020/12/01 01:35:43;;;;;;;35.80;16.65;;;3.00;99.90;;;;;;5086098;28;20016;-45
2020/12/01 01:38:09;;;;;;;32.53;15.82;;;3.10;99.90;;;;;;5075035;28;20165;-45
2020/12/01 01:40:36;;;;;;;26.08;13.52;;;3.10;99.90;;;;;;5065896;28;20506;-44
2020/12/01 01:43:03;;;;;;;27.90;14.25;;;3.10;99.90;;;;;;5077266;28;20032;-45
2020/12/01 01:45:47;;;;;;;30.75;14.63;;;3.10;99.90;;;;;;5086076;28;20031;-47
2020/12/01 01:48:21;;;;;;;30.70;15.18;;;3.10;99.90;;;;;;5083523;28;20120;-46
2020/12/01 01:51:16;;;;;;;28.80;13.88;;;3.10;99.90;;;;;;5085898;28;20024;-48
2020/12/01 01:53:47;;;;;;;24.58;12.45;;;3.10;99.90;;;;;;5053447;28;20513;-49
2020/12/01 01:56:18;;;;;;;25.73;12.95;;;3.10;99.90;;;;;;5065005;28;20468;-45
2020/12/01 01:58:45;;;;;;;24.15;12.55;;;3.10;99.90;;;;;;5078548;28;20217;-47
2020/12/01 02:01:14;;;;;;;28.55;14.90;;;3.20;99.90;;;;;;5083897;28;20028;-47
2020/12/01 02:03:47;;;;;;;24.70;13.20;;;3.20;99.90;;;;;;5085634;28;20104;-46
2020/12/01 02:06:20;;;;;;;28.77;14.73;;;3.20;99.90;;;;;;5066182;28;20032;-48
2020/12/01 02:08:52;;;;;;;26.35;13.38;;;3.30;99.90;;;;;;5083260;28;20060;-46
2020/12/01 02:11:20;;;;;;;31.88;14.73;;;3.30;99.90;;;;;;5085828;28;20032;-45
2020/12/01 02:14:23;;;;;;;30.38;15.05;;;3.30;99.90;;;;;;5085092;28;20051;-46
2020/12/01 02:16:57;;;;;;;32.90;16.55;;;3.30;99.90;;;;;;5082319;28;20522;-46
2020/12/01 02:19:27;;;;;;;29.38;15.07;;;3.30;99.90;;;;;;5064936;28;20924;-45
2020/12/01 02:21:55;;;;;;;28.80;15.85;;;3.00;99.90;;;;;;5082444;28;20094;-50
2020/12/01 02:24:23;;;;;;;25.70;13.40;;;3.10;99.90;;;;;;5084456;28;20043;-49
2020/12/01 02:26:58;;;;;;;25.08;12.90;;;3.10;99.90;;;;;;5065850;28;20031;-46
2020/12/01 02:29:31;;;;;;;27.92;13.05;;;3.10;99.90;;;;;;5064504;28;20477;-46
2020/12/01 02:31:57;;;;;;;26.42;13.15;;;3.20;99.90;;;;;;5064874;28;20116;-48
2020/12/01 02:34:34;;;;;;;24.75;12.63;;;3.30;99.90;;;;;;5064899;28;20546;-50
2020/12/01 02:37:00;;;;;;;22.83;11.90;;;3.30;99.90;;;;;;5064437;28;20551;-46
2020/12/01 02:39:28;;;;;;;23.40;11.90;;;3.30;99.90;;;;;;5065633;28;20024;-47
2020/12/01 02:41:56;;;;;;;22.65;11.55;;;3.20;99.90;;;;;;5064403;28;20039;-46
2020/12/01 02:44:23;;;;;;;23.35;12.18;;;3.20;99.90;;;;;;5064329;28;20140;-46
2020/12/01 02:46:49;;;;;;;22.48;11.93;;;3.20;99.90;;;;;;5065408;28;20105;-47
2020/12/01 02:49:15;;;;;;;18.00;9.25;;;3.20;99.90;;;;;;5083116;28;20115;-46
2020/12/01 02:51:40;;;;;;;17.27;9.70;;;3.20;99.90;;;;;;5083948;28;20102;-47
2020/12/01 02:54:07;;;;;;;18.27;9.80;;;3.00;99.90;;;;;;5082764;28;20074;-45
2020/12/01 02:56:32;;;;;;;19.63;10.82;;;3.10;99.90;;;;;;5084010;28;20081;-46
2020/12/01 02:58:58;;;;;;;21.38;11.45;;;3.20;99.90;;;;;;5084700;28;20028;-46
2020/12/01 03:01:24;;;;;;;18.40;10.05;;;3.30;99.90;;;;;;5083554;28;20032;-46
2020/12/01 03:03:50;;;;;;;20.77;10.73;;;3.30;99.90;;;;;;5074007;28;20036;-45
2020/12/01 03:06:19;;;;;;;20.00;10.10;;;3.20;99.90;;;;;;5065042;28;20045;-48
2020/12/01 03:08:45;;;;;;;17.95;10.15;;;3.30;99.90;;;;;;5064254;28;20033;-50
2020/12/01 03:11:11;;;;;;;21.70;10.30;;;3.40;99.90;;;;;;5063585;28;20078;-47
2020/12/01 03:13:37;;;;;;;19.63;10.90;;;3.40;99.90;;;;;;5071296;28;20028;-46
2020/12/01 03:16:10;;;;;;;22.30;10.60;;;3.40;99.90;;;;;;5084258;28;20020;-47
2020/12/01 03:18:37;;;;;;;20.92;11.07;;;3.40;99.90;;;;;;5084119;28;20057;-48
2020/12/01 03:21:04;;;;;;;22.27;11.98;;;3.40;99.90;;;;;;5084819;28;20086;-47
2020/12/01 03:23:30;;;;;;;22.38;12.27;;;3.40;99.90;;;;;;5076373;28;20464;-49
2020/12/01 03:25:56;;;;;;;20.65;11.02;;;3.40;99.90;;;;;;5075224;28;20062;-46
2020/12/01 03:28:21;;;;;;;23.90;12.15;;;3.30;99.90;;;;;;5063591;28;20110;-47
2020/12/01 03:30:47;;;;;;;23.42;12.77;;;3.30;99.90;;;;;;5064785;28;20020;-49
2020/12/01 03:33:13;;;;;;;22.65;11.63;;;3.30;99.90;;;;;;5073494;28;20119;-46
2020/12/01 03:35:38;;;;;;;24.58;12.23;;;3.40;99.90;;;;;;5088517;28;20035;-46
2020/12/01 03:38:04;;;;;;;22.33;12.07;;;3.30;99.90;;;;;;5086037;28;20023;-49
2020/12/01 03:40:31;;;;;;;21.83;12.02;;;3.10;99.90;;;;;;5065460;28;20106;-47
2020/12/01 03:42:56;;;;;;;21.83;12.73;;;3.00;99.90;;;;;;5067580;28;20020;-48
2020/12/01 03:45:22;;;;;;;22.67;11.93;;;2.90;99.90;;;;;;5068281;28;20025;-45
2020/12/01 03:47:51;;;;;;;23.00;13.40;;;2.90;99.90;;;;;;5068003;28;20042;-47
2020/12/01 03:50:17;;;;;;;23.48;11.90;;;2.80;99.90;;;;;;5068802;28;20100;-48
2020/12/01 03:52:42;;;;;;;24.95;12.85;;;2.70;99.90;;;;;;5068645;28;20145;-46
2020/12/01 03:55:08;;;;;;;23.70;13.25;;;2.60;99.90;;;;;;5067551;28;20761;-45
2020/12/01 03:57:40;;;;;;;27.70;14.20;;;2.80;99.90;;;;;;5067594;28;20028;-48
2020/12/01 04:00:15;;;;;;;24.40;13.57;;;2.90;99.90;;;;;;5066522;28;20078;-45
2020/12/01 04:02:41;;;;;;;27.42;13.50;;;2.80;99.90;;;;;;5080762;28;20017;-45
2020/12/01 04:05:07;;;;;;;24.05;12.10;;;3.00;99.90;;;;;;5076684;28;20042;-48
2020/12/01 04:07:33;;;;;;;26.50;13.68;;;3.10;99.90;;;;;;5087418;28;20048;-46
2020/12/01 04:10:00;;;;;;;28.13;13.57;;;2.70;99.90;;;;;;5073180;28;20037;-47
2020/12/01 04:12:27;;;;;;;25.20;12.95;;;2.70;99.90;;;;;;5068557;28;20032;-49
2020/12/01 04:14:57;;;;;;;30.08;14.40;;;2.50;99.90;;;;;;5068560;28;20074;-48
2020/12/01 04:17:22;;;;;;;23.00;12.00;;;2.40;99.90;;;;;;5068996;28;20107;-46
2020/12/01 04:19:48;;;;;;;23.33;12.30;;;2.80;99.90;;;;;;5069677;28;20722;-45
2020/12/01 04:22:15;;;;;;;22.30;10.80;;;3.00;99.90;;;;;;5068070;28;20559;-45
2020/12/01 04:24:41;;;;;;;22.00;12.10;;;2.90;99.90;;;;;;5085141;28;20036;-45
2020/12/01 04:27:10;;;;;;;23.70;12.00;;;3.10;99.90;;;;;;5087395;28;20133;-45
2020/12/01 04:29:36;;;;;;;24.33;11.75;;;3.10;99.90;;;;;;5088438;28;20456;-46
2020/12/01 04:32:03;;;;;;;22.13;11.23;;;3.20;99.90;;;;;;5087636;28;20135;-44
2020/12/01 04:34:28;;;;;;;19.08;9.82;;;3.20;99.90;;;;;;5084747;28;20032;-46
2020/12/01 04:36:54;;;;;;;21.80;11.45;;;3.20;99.90;;;;;;5069937;28;20396;-46
2020/12/01 04:39:20;;;;;;;20.35;11.07;;;3.20;99.90;;;;;;5066864;28;20625;-45
2020/12/01 04:41:46;;;;;;;23.05;11.02;;;3.30;99.90;;;;;;5078305;28;20034;-47
2020/12/01 04:44:29;;;;;;;22.30;12.27;;;3.20;99.90;;;;;;5070505;28;20128;-45
2020/12/01 04:46:57;;;;;;;22.27;12.40;;;3.20;99.90;;;;;;5068353;28;20673;-47
2020/12/01 04:49:28;;;;;;;22.20;12.07;;;3.10;99.90;;;;;;5067847;28;20067;-45
2020/12/01 04:52:22;;;;;;;24.58;13.52;;;3.00;99.90;;;;;;5067628;28;20036;-45
2020/12/01 04:55:11;;;;;;;25.70;13.23;;;3.00;99.90;;;;;;5078183;28;20100;-45
2020/12/01 04:58:13;;;;;;;23.00;12.85;;;2.90;99.90;;;;;;5088356;28;20509;-48
2020/12/01 05:00:56;;;;;;;23.38;12.20;;;2.90;99.90;;;;;;5083273;28;20554;-46
2020/12/01 05:03:51;;;;;;;24.60;13.18;;;3.20;99.90;;;;;;5068797;28;20028;-47
2020/12/01 05:06:57;;;;;;;25.70;13.52;;;3.20;99.90;;;;;;5068853;28;20027;-44
2020/12/01 05:09:30;;;;;;;24.88;12.88;;;3.10;99.90;;;;;;5084932;28;20028;-45
2020/12/01 05:11:59;;;;;;;24.13;12.63;;;3.10;99.90;;;;;;5087865;28;20123;-48
2020/12/01 05:14:33;;;;;;;25.15;13.30;;;3.10;99.90;;;;;;5085500;28;20529;-45
2020/12/01 05:17:17;;;;;;;26.08;13.13;;;3.10;99.90;;;;;;5087703;28;20036;-46
2020/12/01 05:19:47;;;;;;;24.52;12.68;;;3.10;99.90;;;;;;5068019;28;20430;-47
2020/12/01 05:22:15;;;;;;;26.27;13.52;;;3.20;99.90;;;;;;5080496;28;20130;-45
2020/12/01 05:24:50;;;;;;;28.52;13.50;;;3.00;99.90;;;;;;5085603;28;20106;-45
2020/12/01 05:27:23;;;;;;;28.05;13.55;;;3.20;99.90;;;;;;5068271;28;20060;-47
2020/12/01 05:30:12;;;;;;;25.42;12.55;;;3.20;99.90;;;;;;5070784;28;20020;-45
2020/12/01 05:32:41;;;;;;;24.42;12.32;;;3.20;99.90;;;;;;5067351;28;20036;-45
2020/12/01 05:35:24;;;;;;;22.35;13.07;;;3.30;99.90;;;;;;5067338;28;20027;-46
2020/12/01 05:37:52;;;;;;;26.95;13.68;;;3.30;99.90;;;;;;5078062;28;20612;-45
2020/12/01 05:40:18;;;;;;;27.80;13.80;;;3.20;99.90;;;;;;5075532;28;20024;-48
2020/12/01 05:42:46;;;;;;;26.40;14.25;;;3.20;99.90;;;;;;5084517;28;20105;-46
2020/12/01 05:45:34;;;;;;;24.50;12.68;;;2.90;99.90;;;;;;5086413;28;20065;-46
2020/12/01 05:48:33;;;;;;;26.33;13.52;;;3.20;99.90;;;;;;5087193;28;20028;-45
2020/12/01 05:51:10;;;;;;;22.38;11.52;;;3.30;99.90;;;;;;5075067;28;20040;-49
2020/12/01 05:53:35;;;;;;;23.38;12.77;;;3.30;99.90;;;;;;5067155;28;20032;-45
2020/12/01 05:56:17;;;;;;;22.98;11.98;;;3.20;99.90;;;;;;5065670;28;20526;-47
2020/12/01 05:58:53;;;;;;;21.73;11.43;;;3.10;99.90;;;;;;5079135;28;20038;-49
2020/12/01 06:01:18;;;;;;;26.77;13.45;;;3.20;99.90;;;;;;5066503;28;20025;-46
2020/12/01 06:03:49;;;;;;;22.25;11.80;;;3.30;99.90;;;;;;5066325;28;20087;-45
2020/12/01 06:06:15;;;;;;;21.15;11.80;;;3.40;99.90;;;;;;5066881;28;20052;-45
2020/12/01 06:08:57;;;;;;;23.08;12.15;;;3.50;99.90;;;;;;5066248;28;20502;-46
2020/12/01 06:11:42;;;;;;;19.67;10.20;;;3.50;99.90;;;;;;5078724;28;20033;-45
2020/12/01 06:14:52;;;;;;;20.27;10.93;;;3.40;99.90;;;;;;5084132;28;20486;-44
2020/12/01 06:17:36;;;;;;;20.23;11.07;;;3.60;99.90;;;;;;5078026;28;20028;-44
2020/12/01 06:20:27;;;;;;;22.83;12.63;;;3.50;99.90;;;;;;5066760;28;20077;-44
2020/12/01 06:23:22;;;;;;;24.08;12.30;;;3.50;99.90;;;;;;5072758;28;20361;-45
2020/12/01 06:26:06;;;;;;;22.10;12.40;;;3.50;99.90;;;;;;5069682;28;20107;-44
2020/12/01 06:28:41;;;;;;;20.75;11.00;;;3.60;99.90;;;;;;5065651;28;20039;-46
2020/12/01 06:31:49;;;;;;;23.80;12.48;;;3.50;99.90;;;;;;5076886;28;20028;-46
2020/12/01 06:34:41;;;;;;;34.70;15.57;;;3.50;99.90;;;;;;5066560;28;20040;-44
2020/12/01 06:37:39;;;;;;;32.55;15.35;;;3.60;99.90;;;;;;5058617;28;20104;-45
2020/12/01 06:40:18;;;;;;;31.67;14.25;;;3.80;99.90;;;;;;5069492;28;20033;-46
2020/12/01 06:42:52;;;;;;;26.17;13.88;;;3.90;99.90;;;;;;5066169;28;20021;-45
2020/12/01 06:45:42;;;;;;;21.70;11.88;;;3.90;99.90;;;;;;5083385;28;20446;-45
2020/12/01 06:48:31;;;;;;;23.65;12.38;;;3.90;99.90;;;;;;5076660;28;20553;-45
2020/12/01 06:50:59;;;;;;;22.00;11.77;;;3.90;99.90;;;;;;5072553;28;20036;-45
2020/12/01 06:53:28;;;;;;;21.85;11.93;;;4.00;99.90;;;;;;5075111;28;20104;-45
2020/12/01 06:55:59;;;;;;;22.95;11.93;;;3.80;99.90;;;;;;5065896;28;20056;-45
2020/12/01 06:58:25;;;;;;;22.85;12.23;;;3.80;99.90;;;;;;5068073;28;20047;-45
2020/12/01 07:01:06;;;;;;;20.33;11.10;;;3.80;99.90;;;;;;5069591;28;20040;-45
2020/12/01 07:03:32;;;;;;;26.67;14.68;;;3.80;99.90;;;;;;5079655;28;20055;-45
2020/12/01 07:06:11;;;;;;;33.30;18.17;;;3.50;99.90;;;;;;5066016;28;20036;-45
2020/12/01 07:08:38;;;;;;;31.27;17.23;;;3.20;99.90;;;;;;5065350;28;20021;-44
2020/12/01 07:11:24;;;;;;;33.88;16.00;;;3.50;99.90;;;;;;5066292;28;20044;-46
2020/12/01 07:13:54;;;;;;;29.15;15.32;;;3.40;99.90;;;;;;5066647;28;20028;-46
2020/12/01 07:16:31;;;;;;;32.35;16.25;;;3.30;99.90;;;;;;5074233;28;20040;-44
2020/12/01 07:19:21;;;;;;;29.45;15.80;;;3.40;99.90;;;;;;5066443;28;20033;-46
2020/12/01 07:22:00;;;;;;;28.25;14.05;;;3.40;99.90;;;;;;5066506;28;20027;-45
2020/12/01 07:24:50;;;;;;;23.52;12.68;;;3.40;99.90;;;;;;5068059;28;20028;-44
2020/12/01 07:27:32;;;;;;;20.38;11.85;;;3.40;99.90;;;;;;5071935;28;20394;-45
2020/12/01 07:30:04;;;;;;;20.38;10.70;;;3.30;99.90;;;;;;5065797;28;20044;-45
2020/12/01 07:32:42;;;;;;;20.58;10.98;;;3.30;99.90;;;;;;5069341;28;20139;-45
2020/12/01 07:35:14;;;;;;;22.77;12.38;;;3.40;99.90;;;;;;5080419;28;20016;-45
2020/12/01 07:37:53;;;;;;;23.25;12.35;;;3.50;99.90;;;;;;5083580;28;20032;-44
2020/12/01 07:40:29;;;;;;;20.83;11.82;;;3.60;99.90;;;;;;5065576;28;20020;-45
2020/12/01 07:43:00;;;;;;;23.27;11.40;;;3.60;99.90;;;;;;5065588;28;20051;-44
2020/12/01 07:45:29;;;;;;;22.00;11.60;;;3.70;99.90;;;;;;5065149;28;20029;-47
2020/12/01 07:47:58;;;;;;;24.58;13.30;;;3.60;99.90;;;;;;5065191;28;20500;-47
2020/12/01 07:50:25;;;;;;;24.00;12.30;;;3.60;99.90;;;;;;5065530;28;20717;-46
2020/12/01 07:53:03;;;;;;;21.23;11.35;;;3.60;99.90;;;;;;5065828;28;20035;-46
2020/12/01 07:55:37;;;;;;;23.10;13.57;;;3.60;99.90;;;;;;5064941;28;20093;-46
2020/12/01 07:58:18;;;;;;;20.98;11.52;;;3.50;99.90;;;;;;5065616;28;20433;-45
2020/12/01 08:00:59;;;;;;;22.75;12.23;;;3.50;99.90;;;;;;5065408;28;20029;-46
2020/12/01 08:03:33;;;;;;;21.45;11.80;;;3.60;99.90;;;;;;5065379;28;20055;-46
2020/12/01 08:06:10;;;;;;;22.48;11.80;;;3.70;99.90;;;;;;5065279;28;20035;-45
2020/12/01 08:08:42;;;;;;;18.70;10.32;;;3.60;99.90;;;;;;5065199;28;20028;-46
2020/12/01 08:11:13;;;;;;;20.55;11.07;;;3.70;99.90;;;;;;5065146;28;20032;-45
2020/12/01 08:13:41;;;;;;;19.63;10.57;;;3.70;99.90;;;;;;5065589;28;20032;-46
2020/12/01 08:16:28;;;;;;;20.77;10.73;;;3.70;99.90;;;;;;5064804;28;20032;-45
2020/12/01 08:18:54;;;;;;;23.35;12.45;;;3.70;99.90;;;;;;5067320;28;20050;-46
2020/12/01 08:21:31;;;;;;;20.00;11.27;;;3.90;99.90;;;;;;5072398;28;20036;-45
2020/12/01 08:24:01;;;;;;;18.80;9.73;;;3.80;99.90;;;;;;5067154;28;20077;-45
2020/12/01 08:26:29;;;;;;;19.40;10.63;;;3.80;99.90;;;;;;5067633;28;20395;-46
2020/12/01 08:29:04;;;;;;;16.05;9.05;;;3.80;99.90;;;;;;5067258;28;20613;-45
2020/12/01 08:32:21;;;;;;;14.25;8.80;;;3.80;99.90;;;;;;5068309;28;20036;-46
2020/12/01 08:34:53;;;;;;;24.33;12.48;;;3.70;99.90;;;;;;5039979;28;20067;-49
2020/12/01 08:37:51;;;;;;;23.98;12.80;;;3.80;99.90;;;;;;5066635;28;20021;-47
2020/12/01 08:40:36;;;;;;;27.27;13.70;;;3.70;99.90;;;;;;5035551;28;20040;-46
2020/12/01 08:43:20;;;;;;;22.42;12.70;;;3.70;99.90;;;;;;5066833;28;20025;-45
2020/12/01 08:46:14;;;;;;;21.50;11.38;;;3.90;99.90;;;;;;5067175;28;20024;-47
2020/12/01 08:48:50;;;;;;;24.80;11.70;;;3.90;99.90;;;;;;5067642;28;20032;-46
2020/12/01 08:51:27;;;;;;;19.38;10.05;;;4.00;99.90;;;;;;5066742;28;20099;-49
2020/12/01 08:54:14;;;;;;;17.00;8.77;;;4.00;99.90;;;;;;5066958;28;20052;-48
2020/12/01 08:56:49;;;;;;;25.25;11.73;;;4.00;99.90;;;;;;5067488;28;20029;-46
2020/12/01 08:59:28;;;;;;;27.85;12.70;;;3.90;99.90;;;;;;5066032;28;20115;-49
2020/12/01 09:02:01;;;;;;;27.35;13.07;;;4.00;99.90;;;;;;5065349;28;20028;-47
2020/12/01 09:04:31;;;;;;;29.98;13.52;;;4.00;99.90;;;;;;5066445;28;20031;-45
2020/12/01 09:07:17;;;;;;;24.52;12.60;;;4.00;99.90;;;;;;5066683;28;20545;-47
2020/12/01 09:09:51;;;;;;;25.98;12.90;;;4.10;99.90;;;;;;5066735;28;20036;-49
2020/12/01 09:12:25;;;;;;;29.20;13.48;;;4.10;99.90;;;;;;5066040;28;20136;-49
2020/12/01 09:17:49;;;;;;;21.27;11.63;;;4.20;99.90;;;;;;5066036;28;20442;-49
2020/12/01 09:23:21;;;;;;;21.58;11.70;;;4.30;99.90;;;;;;5066353;28;20034;-46
2020/12/01 09:25:49;;;;;;;28.98;13.60;;;4.30;99.90;;;;;;5066334;28;20033;-49
2020/12/01 09:28:24;;;;;;;27.75;12.45;;;4.30;99.90;;;;;;5065539;28;20050;-46
2020/12/01 09:30:51;;;;;;;25.35;12.05;;;4.20;99.90;;;;;;5065952;28;20029;-46
2020/12/01 09:33:22;;;;;;;23.70;11.98;;;4.30;99.90;;;;;;5065902;28;20423;-46
2020/12/01 09:35:49;;;;;;;21.13;10.73;;;4.30;99.90;;;;;;5066089;28;20024;-45
2020/12/01 09:38:16;;;;;;;21.58;10.75;;;4.10;99.90;;;;;;5065762;28;20532;-45
2020/12/01 09:40:44;;;;;;;18.98;9.95;;;4.20;99.90;;;;;;5066332;28;20029;-46
2020/12/01 09:45:41;;;;;;;21.67;10.52;;;4.30;99.90;;;;;;5066042;28;20036;-45
2020/12/01 09:48:24;;;;;;;18.40;9.50;;;4.40;99.90;;;;;;5065793;28;20082;-47
2020/12/01 09:50:50;;;;;;;18.10;9.97;;;4.30;99.90;;;;;;5065723;28;20029;-45
2020/12/01 09:56:22;;;;;;;18.20;10.07;;;4.40;99.90;;;;;;5065724;28;20469;-48
2020/12/01 10:13:06;;;;;;;20.92;11.38;;;4.40;99.90;;;;;;5064701;28;20043;-45
2020/12/01 10:36:30;;;;;;;;;;;4.40;99.90;;;;;;5065304;28;20039;-47
2020/12/01 10:38:59;;;;;;;20.45;11.05;;;4.40;99.90;;;;;;5064958;28;19904;-45
2020/12/01 10:41:30;;;;;;;18.55;10.07;;;4.40;99.90;;;;;;5064254;28;20037;-46
2020/12/01 10:43:56;;;;;;;17.63;10.07;;;4.50;99.90;;;;;;5064816;28;20037;-48
2020/12/01 10:46:21;;;;;;;14.35;8.10;;;4.50;99.90;;;;;;5064916;28;20051;-46
2020/12/01 10:48:47;;;;;;;13.77;8.27;;;4.50;99.90;;;;;;5064713;28;20111;-45
2020/12/01 10:51:12;;;;;;;19.52;10.35;;;4.40;99.90;;;;;;5065016;28;20028;-46
2020/12/01 10:53:39;;;;;;;18.65;10.60;;;4.50;99.90;;;;;;5064507;28;20025;-48
2020/12/01 10:56:04;;;;;;;21.65;11.48;;;4.50;99.90;;;;;;5064298;28;20513;-48
2020/12/01 10:58:30;;;;;;;23.55;12.48;;;4.50;99.90;;;;;;5064471;28;20033;-47
2020/12/01 11:00:56;;;;;;;24.58;13.48;;;4.50;99.90;;;;;;5064639;28;20029;-48
2020/12/01 11:03:21;;;;;;;24.60;13.10;;;4.60;99.90;;;;;;5064266;28;20028;-46
2020/12/01 11:05:47;;;;;;;34.58;17.48;;;4.70;99.90;;;;;;5064739;28;20024;-48
2020/12/01 11:08:13;;;;;;;27.50;13.13;;;4.70;99.90;;;;;;5064740;28;20410;-48
2020/12/01 11:10:39;;;;;;;23.30;12.23;;;4.70;99.90;;;;;;5064107;28;20127;-49
2020/12/01 11:13:07;;;;;;;19.10;9.90;;;4.80;99.90;;;;;;5063829;28;20043;-47
2020/12/01 11:15:33;;;;;;;21.35;11.68;;;4.90;99.90;;;;;;5064573;28;20534;-46
2020/12/01 11:17:58;;;;;;;19.40;10.75;;;4.90;99.90;;;;;;5064422;28;20035;-47
2020/12/01 11:20:24;;;;;;;18.30;10.73;;;4.90;99.90;;;;;;5064278;28;20025;-45
2020/12/01 11:22:50;;;;;;;19.60;10.23;;;5.10;99.90;;;;;;5064313;28;20058;-46
2020/12/01 11:25:17;;;;;;;24.40;11.45;;;5.30;99.90;;;;;;5064227;28;20186;-46
2020/12/01 11:27:43;;;;;;;19.17;10.65;;;5.40;99.90;;;;;;5065013;28;20399;-49
2020/12/01 11:30:09;;;;;;;18.80;10.13;;;5.50;99.90;;;;;;5064460;28;20082;-48
2020/12/01 11:32:35;;;;;;;17.90;10.02;;;5.40;99.90;;;;;;5064298;28;20032;-47
2020/12/01 11:35:03;;;;;;;16.92;9.65;;;5.30;99.90;;;;;;5064416;28;20109;-48
2020/12/01 11:37:28;;;;;;;15.32;8.32;;;5.40;99.90;;;;;;5064258;28;20047;-47
2020/12/01 11:39:54;;;;;;;13.48;7.07;;;5.40;99.90;;;;;;5064562;28;20537;-50
2020/12/01 11:42:20;;;;;;;15.65;8.65;;;5.30;99.90;;;;;;5063874;28;20046;-47
2020/12/01 11:44:45;;;;;;;13.73;7.07;;;5.30;99.90;;;;;;5064424;28;20028;-47
2020/12/01 11:47:11;;;;;;;11.82;7.15;;;5.40;99.90;;;;;;5064678;28;20486;-46
2020/12/01 11:49:38;;;;;;;12.52;6.90;;;5.30;99.90;;;;;;5064287;28;20029;-49
2020/12/01 11:52:04;;;;;;;15.02;7.57;;;5.40;99.90;;;;;;5063799;28;20436;-46
2020/12/01 11:54:29;;;;;;;19.23;9.77;;;5.60;99.90;;;;;;5066946;28;20019;-46
2020/12/01 11:56:55;;;;;;;23.73;10.68;;;5.60;99.90;;;;;;5067692;28;20664;-45
2020/12/01 11:59:20;;;;;;;23.77;10.98;;;5.50;99.90;;;;;;5067851;28;20024;-45
2020/12/01 12:01:46;;;;;;;20.77;9.98;;;5.30;99.90;;;;;;5071043;28;20474;-48
2020/12/01 12:04:13;;;;;;;21.20;10.13;;;5.50;99.90;;;;;;5077930;28;20024;-44
2020/12/01 12:06:39;;;;;;;23.25;10.60;;;5.40;99.90;;;;;;5082118;28;20028;-45
2020/12/01 12:09:07;;;;;;;29.58;12.98;;;5.40;99.90;;;;;;5089100;28;20036;-46
2020/12/01 12:11:33;;;;;;;41.08;16.23;;;5.40;99.90;;;;;;5071297;28;21063;-45
2020/12/01 12:13:59;;;;;;;36.72;14.98;;;5.40;99.90;;;;;;5086529;28;20047;-49
2020/12/01 12:16:27;;;;;;;29.10;12.60;;;5.50;99.90;;;;;;5082330;28;20221;-46
2020/12/01 12:18:53;;;;;;;23.90;11.80;;;5.60;99.90;;;;;;5068172;28;20503;-49
2020/12/01 12:21:19;;;;;;;23.70;10.98;;;5.60;99.90;;;;;;5074908;28;20039;-46
2020/12/01 12:23:46;;;;;;;17.88;9.73;;;5.70;99.90;;;;;;5074908;28;20032;-46
2020/12/01 12:26:12;;;;;;;15.20;8.45;;;5.60;99.90;;;;;;5078457;28;20076;-49
2020/12/01 12:28:38;;;;;;;19.13;9.45;;;5.60;99.90;;;;;;5089103;28;20028;-48
2020/12/01 12:31:05;;;;;;;13.70;8.02;;;5.70;99.90;;;;;;5088737;28;20038;-45
2020/12/01 12:33:30;;;;;;;13.65;7.43;;;5.70;99.90;;;;;;5088912;28;20103;-48
2020/12/01 12:35:58;;;;;;;12.02;6.68;;;5.80;99.90;;;;;;5087603;28;20161;-49
2020/12/01 12:38:24;;;;;;;15.05;7.53;;;5.90;99.90;;;;;;5087304;28;20026;-46
2020/12/01 12:40:51;;;;;;;11.85;6.90;;;5.90;99.90;;;;;;5086050;28;20023;-47
2020/12/01 12:43:18;;;;;;;13.25;7.85;;;5.90;99.90;;;;;;5087070;28;20231;-46
2020/12/01 12:45:45;;;;;;;14.20;8.48;;;6.00;99.90;;;;;;5087620;28;20020;-45
2020/12/01 12:48:11;;;;;;;13.82;8.18;;;5.70;99.90;;;;;;5074689;28;20176;-48
2020/12/01 12:50:37;;;;;;;13.93;7.65;;;5.80;99.90;;;;;;5067116;28;20031;-45
2020/12/01 12:53:03;;;;;;;11.43;7.13;;;5.90;99.90;;;;;;5070319;28;20099;-45
2020/12/01 12:55:29;;;;;;;11.02;7.10;;;5.90;99.90;;;;;;5083548;28;20077;-44
2020/12/01 12:57:58;;;;;;;12.55;7.22;;;6.00;99.90;;;;;;5083806;28;20095;-49
2020/12/01 13:00:30;;;;;;;13.70;7.47;;;5.90;99.90;;;;;;5066964;28;20558;-47
2020/12/01 13:02:56;;;;;;;12.27;7.32;;;5.90;99.90;;;;;;5066750;28;20032;-46
2020/12/01 13:05:23;;;;;;;13.55;8.02;;;5.90;99.90;;;;;;5065760;28;20039;-45
2020/12/01 13:07:49;;;;;;;11.38;6.32;;;6.00;99.90;;;;;;5066676;28;20044;-46
2020/12/01 13:10:16;;;;;;;14.05;8.10;;;6.10;99.90;;;;;;5070889;28;20565;-47
2020/12/01 13:12:42;;;;;;;12.95;7.60;;;6.20;99.90;;;;;;5098782;28;20494;-45
2020/12/01 13:15:09;;;;;;;12.55;6.88;;;6.20;99.90;;;;;;5086441;28;20077;-46
2020/12/01 13:17:36;;;;;;;15.00;9.15;;;6.10;99.90;;;;;;5077913;28;20697;-45
2020/12/01 13:20:04;;;;;;;17.50;9.65;;;6.10;99.90;;;;;;5066653;28;20494;-45
2020/12/01 13:22:30;;;;;;;17.33;9.90;;;6.20;99.90;;;;;;5071913;28;20020;-47
2020/12/01 13:24:55;;;;;;;19.77;10.93;;;6.20;99.90;;;;;;5085708;28;20646;-46
2020/12/01 13:27:21;;;;;;;17.92;10.00;;;6.30;99.90;;;;;;5086017;28;20119;-47
2020/12/01 13:29:46;;;;;;;20.38;11.45;;;6.30;99.90;;;;;;5087116;28;20564;-47
2020/12/01 13:32:12;;;;;;;19.13;10.88;;;6.30;99.90;;;;;;5085818;28;20514;-44
2020/12/01 13:34:38;;;;;;;19.20;10.98;;;6.30;99.90;;;;;;5085161;28;20374;-45
2020/12/01 13:37:03;;;;;;;18.40;9.75;;;6.20;99.90;;;;;;5086326;28;20490;-45
2020/12/01 13:39:29;;;;;;;17.50;9.60;;;6.30;99.90;;;;;;5086373;28;20016;-49
2020/12/01 13:41:55;;;;;;;19.35;9.95;;;6.30;99.90;;;;;;5076492;28;20032;-46
2020/12/01 13:44:22;;;;;;;18.65;10.27;;;6.30;99.90;;;;;;5066365;28;20363;-48